createdAt,value
2022-11-06T00:01:28.789Z,59.60
2022-11-06T00:04:03.852Z,59.80
2022-11-06T00:06:48.193Z,59.60
2022-11-06T00:09:22.982Z,59.70
2022-11-06T00:11:58.023Z,59.70
2022-11-06T00:14:31.609Z,59.60
2022-11-06T00:17:04.974Z,59.50
2022-11-06T00:19:39.707Z,59.70
2022-11-06T00:22:13.324Z,59.60
2022-11-06T00:24:46.672Z,59.60
2022-11-06T00:27:20.285Z,59.60
2022-11-06T00:29:53.916Z,59.80
2022-11-06T00:32:27.512Z,59.70
2022-11-06T00:35:02.886Z,59.60
2022-11-06T00:37:36.801Z,59.60
2022-11-06T00:40:15.120Z,60.20
2022-11-06T00:42:48.526Z,60.20
2022-11-06T00:45:21.982Z,59.60
2022-11-06T00:47:55.856Z,59.60
2022-11-06T00:50:31.260Z,59.70
2022-11-06T00:53:04.946Z,59.50
2022-11-06T00:55:38.324Z,59.60
2022-11-06T00:58:12.066Z,59.60
2022-11-06T01:00:45.589Z,59.50
2022-11-06T01:03:18.960Z,59.60
2022-11-06T01:05:55.120Z,59.60
2022-11-06T01:08:28.571Z,59.40
2022-11-06T01:11:09.482Z,59.70
2022-11-06T01:13:43.924Z,59.90
2022-11-06T01:16:17.699Z,59.80
2022-11-06T01:18:52.223Z,59.50
2022-11-06T01:21:30.065Z,59.80
2022-11-06T01:24:07.555Z,59.80
2022-11-06T01:26:58.822Z,59.80
2022-11-06T01:29:37.375Z,59.70
2022-11-06T01:32:11.502Z,59.80
2022-11-06T01:34:46.931Z,59.80
2022-11-06T01:37:22.110Z,60.00
2022-11-06T01:39:56.488Z,59.80
2022-11-06T01:42:29.975Z,59.80
2022-11-06T01:45:40.851Z,59.70
2022-11-06T01:48:17.040Z,59.90
2022-11-06T01:50:56.448Z,59.90
2022-11-06T01:53:31.996Z,59.80
2022-11-06T01:56:10.493Z,59.90
2022-11-06T01:58:48.679Z,59.90
2022-11-06T02:01:22.371Z,59.90
2022-11-06T02:04:04.609Z,59.90
2022-11-06T02:06:39.710Z,60.00
2022-11-06T02:09:15.377Z,59.90
2022-11-06T02:11:58.066Z,59.70
2022-11-06T02:14:43.074Z,60.00
2022-11-06T02:17:29.373Z,60.00
2022-11-06T02:20:11.591Z,60.00
2022-11-06T02:23:30.909Z,60.00
2022-11-06T02:26:26.209Z,60.00
2022-11-06T02:29:08.630Z,60.10
2022-11-06T02:31:46.667Z,60.00
2022-11-06T02:34:25.626Z,60.00
2022-11-06T02:37:06.352Z,60.00
2022-11-06T02:39:44.012Z,60.70
2022-11-06T02:42:22.488Z,60.00
2022-11-06T02:44:59.130Z,60.00
2022-11-06T02:47:35.555Z,60.00
2022-11-06T02:50:13.737Z,60.00
2022-11-06T02:52:55.224Z,60.00
2022-11-06T02:55:35.204Z,60.00
2022-11-06T02:58:15.213Z,60.10
2022-11-06T03:00:57.386Z,60.00
2022-11-06T03:03:35.938Z,60.00
2022-11-06T03:06:18.476Z,59.90
2022-11-06T03:08:58.597Z,59.90
2022-11-06T03:11:39.135Z,59.90
2022-11-06T03:14:19.861Z,60.00
2022-11-06T03:17:11.527Z,59.90
2022-11-06T03:19:51.853Z,60.00
2022-11-06T03:22:34.330Z,60.00
2022-11-06T03:25:19.997Z,59.90
2022-11-06T03:28:05.922Z,59.80
2022-11-06T03:30:47.183Z,60.00
2022-11-06T03:33:34.752Z,60.60
2022-11-06T03:36:16.053Z,59.80
2022-11-06T03:38:55.739Z,60.00
2022-11-06T03:41:38.755Z,60.00
2022-11-06T03:44:18.938Z,59.90
2022-11-06T03:47:03.909Z,60.00
2022-11-06T03:49:47.406Z,60.10
2022-11-06T03:52:29.462Z,60.10
2022-11-06T03:55:09.003Z,60.20
2022-11-06T03:57:49.686Z,60.10
2022-11-06T04:00:24.813Z,60.10
2022-11-06T04:03:05.820Z,60.10
2022-11-06T04:05:49.263Z,60.20
2022-11-06T04:08:43.447Z,60.00
2022-11-06T04:11:41.176Z,60.20
2022-11-06T04:14:17.806Z,60.20
2022-11-06T04:16:57.896Z,60.10
2022-11-06T04:19:31.254Z,60.20
2022-11-06T04:22:35.399Z,60.00
2022-11-06T04:25:48.235Z,60.30
2022-11-06T04:28:35.013Z,60.30
2022-11-06T04:31:17.683Z,60.30
2022-11-06T04:33:59.969Z,60.30
2022-11-06T04:36:45.232Z,60.30
2022-11-06T04:39:31.685Z,60.40
2022-11-06T04:42:18.452Z,60.50
2022-11-06T04:45:02.624Z,60.50
2022-11-06T04:47:39.980Z,60.50
2022-11-06T04:50:16.774Z,60.60
2022-11-06T04:52:51.336Z,60.70
2022-11-06T04:55:27.372Z,60.70
2022-11-06T04:58:00.891Z,60.80
2022-11-06T05:00:35.078Z,60.40
2022-11-06T05:03:09.338Z,60.60
2022-11-06T05:05:43.485Z,60.50
2022-11-06T05:08:18.916Z,60.60
2022-11-06T05:10:53.695Z,60.80
2022-11-06T05:13:27.111Z,60.30
2022-11-06T05:16:01.664Z,60.60
2022-11-06T05:18:36.236Z,60.80
2022-11-06T05:21:27.245Z,61.10
2022-11-06T05:24:00.613Z,60.70
2022-11-06T05:26:36.164Z,60.70
2022-11-06T05:29:10.319Z,60.20
2022-11-06T05:31:44.968Z,61.00
2022-11-06T05:34:18.310Z,60.80
2022-11-06T05:36:51.684Z,60.80
2022-11-06T05:39:25.959Z,60.80
2022-11-06T05:42:00.692Z,61.00
2022-11-06T05:44:34.388Z,60.80
2022-11-06T05:47:07.711Z,60.90
2022-11-06T05:49:42.612Z,60.80
2022-11-06T05:52:15.988Z,60.90
2022-11-06T05:54:49.299Z,60.90
2022-11-06T05:57:24.511Z,60.90
2022-11-06T05:59:58.125Z,60.80
2022-11-06T06:02:31.909Z,61.00
2022-11-06T06:05:07.125Z,61.00
2022-11-06T06:07:40.627Z,61.10
2022-11-06T06:10:14.098Z,60.80
2022-11-06T06:12:51.017Z,60.90
2022-11-06T06:15:24.351Z,61.00
2022-11-06T06:17:59.912Z,60.90
2022-11-06T06:20:33.769Z,60.80
2022-11-06T06:23:09.632Z,61.10
2022-11-06T06:25:44.526Z,61.10
2022-11-06T06:28:19.776Z,61.30
2022-11-06T06:30:58.595Z,60.80
2022-11-06T06:33:36.397Z,61.10
2022-11-06T06:36:10.892Z,61.30
2022-11-06T06:38:44.244Z,61.30
2022-11-06T06:41:17.709Z,61.20
2022-11-06T06:43:52.705Z,61.20
2022-11-06T06:46:26.510Z,61.20
2022-11-06T06:49:00.088Z,61.00
2022-11-06T06:51:34.565Z,61.40
2022-11-06T06:54:08.292Z,61.50
2022-11-06T06:56:41.803Z,61.30
2022-11-06T06:59:16.804Z,61.40
2022-11-06T07:01:50.297Z,61.10
2022-11-06T07:04:23.892Z,61.30
2022-11-06T07:06:57.710Z,61.40
2022-11-06T07:09:32.818Z,61.60
2022-11-06T07:12:06.723Z,61.70
2022-11-06T07:14:41.867Z,61.50
2022-11-06T07:17:15.208Z,61.40
2022-11-06T07:19:48.565Z,61.40
2022-11-06T07:22:29.682Z,61.50
2022-11-06T07:25:09.951Z,61.60
2022-11-06T07:27:43.341Z,62.50
2022-11-06T07:30:18.754Z,61.60
2022-11-06T07:32:52.315Z,61.70
2022-11-06T07:35:25.935Z,61.70
2022-11-06T07:38:00.097Z,61.50
2022-11-06T07:40:34.201Z,61.70
2022-11-06T07:43:09.763Z,61.80
2022-11-06T07:45:45.706Z,61.90
2022-11-06T07:48:19.543Z,61.70
2022-11-06T07:50:52.901Z,61.80
2022-11-06T07:53:27.323Z,61.80
2022-11-06T07:56:01.480Z,61.90
2022-11-06T07:58:35.585Z,61.90
2022-11-06T08:01:18.940Z,61.70
2022-11-06T08:03:52.680Z,61.90
2022-11-06T08:06:26.059Z,61.70
2022-11-06T08:09:00.005Z,61.80
2022-11-06T08:11:33.456Z,61.80
2022-11-06T08:14:07.019Z,61.60
2022-11-06T08:16:41.886Z,61.60
2022-11-06T08:19:15.344Z,61.50
2022-11-06T08:21:49.400Z,61.20
2022-11-06T08:24:23.101Z,61.30
2022-11-06T08:26:57.610Z,60.50
2022-11-06T08:29:31.097Z,60.80
2022-11-06T08:32:06.501Z,61.00
2022-11-06T08:34:39.916Z,60.90
2022-11-06T08:37:13.356Z,60.80
2022-11-06T08:39:46.880Z,60.80
2022-11-06T08:42:20.272Z,60.70
2022-11-06T08:44:53.733Z,60.60
2022-11-06T08:47:30.179Z,61.40
2022-11-06T08:50:04.179Z,60.00
2022-11-06T08:52:37.762Z,60.60
2022-11-06T08:55:11.535Z,60.40
2022-11-06T08:57:45.093Z,60.30
2022-11-06T09:00:19.283Z,60.50
2022-11-06T09:03:00.357Z,60.40
2022-11-06T09:05:34.447Z,60.70
2022-11-06T09:08:07.861Z,60.70
2022-11-06T09:10:44.022Z,61.50
2022-11-06T09:13:17.632Z,60.80
2022-11-06T09:15:53.971Z,60.60
2022-11-06T09:18:29.347Z,60.80
2022-11-06T09:21:05.653Z,60.50
2022-11-06T09:23:39.431Z,60.30
2022-11-06T09:26:12.944Z,59.70
2022-11-06T09:28:48.012Z,59.80
2022-11-06T09:31:22.023Z,59.70
2022-11-06T09:33:57.061Z,59.40
2022-11-06T09:36:30.503Z,59.30
2022-11-06T09:39:04.083Z,59.30
2022-11-06T09:41:57.848Z,59.10
2022-11-06T09:44:52.944Z,59.30
2022-11-06T09:47:33.032Z,59.20
2022-11-06T09:50:18.206Z,59.20
2022-11-06T09:53:04.655Z,59.30
2022-11-06T09:55:44.532Z,59.20
2022-11-06T09:58:24.480Z,59.20
2022-11-06T10:01:03.580Z,59.10
2022-11-06T10:03:46.644Z,59.20
2022-11-06T10:06:24.162Z,59.10
2022-11-06T10:09:02.470Z,58.90
2022-11-06T10:11:56.195Z,59.50
2022-11-06T10:14:51.393Z,59.20
2022-11-06T10:17:46.675Z,59.30
2022-11-06T10:20:27.460Z,59.20
2022-11-06T10:23:18.074Z,59.10
2022-11-06T10:26:08.053Z,59.40
2022-11-06T10:29:16.930Z,58.90
2022-11-06T10:32:13.942Z,58.50
2022-11-06T10:34:53.899Z,58.40
2022-11-06T10:37:31.583Z,58.30
2022-11-06T10:40:18.267Z,58.20
2022-11-06T10:43:03.074Z,57.90
2022-11-06T10:45:42.546Z,58.00
2022-11-06T10:48:30.500Z,57.80
2022-11-06T10:51:25.565Z,57.80
2022-11-06T10:54:19.398Z,57.80
2022-11-06T10:57:11.412Z,57.60
2022-11-06T10:59:45.121Z,57.20
2022-11-06T11:02:29.392Z,57.20
2022-11-06T11:05:11.547Z,57.10
2022-11-06T11:07:48.558Z,57.30
2022-11-06T11:10:33.434Z,57.20
2022-11-06T11:13:22.356Z,57.30
2022-11-06T11:15:55.947Z,57.30
2022-11-06T11:18:32.661Z,57.10
2022-11-06T11:21:21.139Z,57.10
2022-11-06T11:24:09.303Z,56.90
2022-11-06T11:26:49.051Z,56.30
2022-11-06T11:29:30.722Z,56.20
2022-11-06T11:32:08.832Z,56.10
2022-11-06T11:34:53.925Z,56.00
2022-11-06T11:37:32.230Z,55.90
2022-11-06T11:40:35.947Z,55.40
2022-11-06T11:43:28.630Z,55.30
2022-11-06T11:46:21.461Z,56.00
2022-11-06T11:49:00.281Z,55.90
2022-11-06T11:51:47.832Z,55.80
2022-11-06T11:54:26.270Z,55.50
2022-11-06T11:57:07.315Z,55.60
2022-11-06T11:59:47.930Z,55.50
2022-11-06T12:02:29.526Z,55.00
2022-11-06T12:05:12.235Z,55.20
2022-11-06T12:07:50.989Z,55.20
2022-11-06T12:10:33.457Z,55.40
2022-11-06T12:13:17.507Z,55.30
2022-11-06T12:15:58.673Z,55.50
2022-11-06T12:18:38.341Z,55.20
2022-11-06T12:21:22.749Z,55.10
2022-11-06T12:24:03.086Z,55.30
2022-11-06T12:26:45.762Z,55.30
2022-11-06T12:29:24.800Z,55.20
2022-11-06T12:32:08.845Z,55.10
2022-11-06T12:34:53.565Z,55.00
2022-11-06T12:37:42.041Z,55.10
2022-11-06T12:40:25.356Z,54.90
2022-11-06T12:43:17.533Z,54.80
2022-11-06T12:46:08.364Z,54.50
2022-11-06T12:49:49.747Z,54.30
2022-11-06T12:52:43.429Z,54.30
2022-11-06T12:55:28.052Z,54.30
2022-11-06T12:58:36.445Z,54.40
2022-11-06T13:01:21.690Z,54.20
2022-11-06T13:04:22.267Z,54.30
2022-11-06T13:07:36.021Z,54.20
2022-11-06T13:10:38.057Z,54.20
2022-11-06T13:13:41.651Z,54.10
2022-11-06T13:16:30.902Z,54.10
2022-11-06T13:19:16.820Z,54.30
2022-11-06T13:22:09.153Z,54.00
2022-11-06T13:24:51.719Z,53.90
2022-11-06T13:27:36.573Z,54.00
2022-11-06T13:30:18.152Z,54.10
2022-11-06T13:33:04.000Z,54.10
2022-11-06T13:35:41.964Z,54.00
2022-11-06T13:38:21.957Z,54.10
2022-11-06T13:41:04.018Z,54.00
2022-11-06T13:43:43.985Z,53.70
2022-11-06T13:46:31.553Z,53.70
2022-11-06T13:49:18.675Z,53.50
2022-11-06T13:51:57.583Z,53.40
2022-11-06T13:55:06.411Z,53.30
2022-11-06T13:58:19.683Z,53.10
2022-11-06T14:01:07.557Z,53.20
2022-11-06T14:04:16.440Z,53.20
2022-11-06T14:06:54.878Z,53.10
2022-11-06T14:09:32.979Z,53.80
2022-11-06T14:12:15.308Z,53.10
2022-11-06T14:14:53.088Z,53.00
2022-11-06T14:17:27.267Z,53.20
2022-11-06T14:20:08.864Z,53.00
2022-11-06T14:22:42.633Z,53.00
2022-11-06T14:25:58.276Z,52.80
2022-11-06T14:28:34.556Z,53.00
2022-11-06T14:31:13.112Z,53.20
2022-11-06T14:34:03.806Z,53.20
2022-11-06T14:36:38.481Z,53.00
2022-11-06T14:39:15.851Z,52.80
2022-11-06T14:42:00.370Z,52.70
2022-11-06T14:44:49.499Z,52.70
2022-11-06T14:47:51.408Z,52.80
2022-11-06T14:50:37.025Z,52.50
2022-11-06T14:53:29.799Z,52.60
2022-11-06T14:56:09.072Z,52.40
2022-11-06T14:58:51.261Z,52.60
2022-11-06T15:01:31.201Z,52.40
2022-11-06T15:04:16.285Z,52.40
2022-11-06T15:06:52.075Z,52.50
2022-11-06T15:09:47.767Z,52.60
2022-11-06T15:13:07.120Z,52.40
2022-11-06T15:15:44.560Z,52.30
2022-11-06T15:18:23.085Z,52.40
2022-11-06T15:21:03.092Z,52.40
2022-11-06T15:23:46.815Z,52.20
2022-11-06T15:26:28.367Z,52.20
2022-11-06T15:29:21.418Z,52.20
2022-11-06T15:32:03.854Z,52.10
2022-11-06T15:34:42.075Z,52.20
2022-11-06T15:37:23.090Z,52.20
2022-11-06T15:40:01.207Z,52.00
2022-11-06T15:42:38.078Z,52.20
2022-11-06T15:45:23.215Z,52.10
2022-11-06T15:48:02.386Z,52.20
2022-11-06T15:50:37.418Z,52.10
2022-11-06T15:53:22.269Z,52.30
2022-11-06T15:56:01.464Z,52.30
2022-11-06T15:58:37.210Z,52.50
2022-11-06T16:01:13.076Z,52.70
2022-11-06T16:03:52.642Z,52.60
2022-11-06T16:06:26.896Z,52.90
2022-11-06T16:09:05.158Z,53.10
2022-11-06T16:11:39.980Z,53.30
2022-11-06T16:14:15.793Z,53.30
2022-11-06T16:16:51.903Z,53.60
2022-11-06T16:19:33.767Z,53.60
2022-11-06T16:22:12.125Z,53.90
2022-11-06T16:24:52.921Z,54.10
2022-11-06T16:27:28.455Z,54.20
2022-11-06T16:30:04.263Z,54.40
2022-11-06T16:32:42.167Z,54.60
2022-11-06T16:35:36.531Z,55.30
2022-11-06T16:38:42.038Z,54.90
2022-11-06T16:41:32.678Z,55.20
2022-11-06T16:44:31.324Z,54.90
2022-11-06T16:47:23.631Z,55.60
2022-11-06T16:49:58.744Z,55.60
2022-11-06T16:52:35.693Z,55.60
2022-11-06T16:55:28.464Z,55.90
2022-11-06T16:58:04.628Z,55.80
2022-11-06T17:00:38.370Z,56.20
2022-11-06T17:03:24.003Z,55.60
2022-11-06T17:05:59.782Z,55.50
2022-11-06T17:08:38.506Z,55.60
2022-11-06T17:11:21.937Z,55.50
2022-11-06T17:14:01.472Z,55.40
2022-11-06T17:16:49.522Z,54.60
2022-11-06T17:19:23.542Z,55.50
2022-11-06T17:21:58.178Z,55.50
2022-11-06T17:24:36.564Z,55.20
2022-11-06T17:27:10.848Z,55.30
2022-11-06T17:29:45.954Z,55.30
2022-11-06T17:32:19.608Z,55.20
2022-11-06T17:34:53.165Z,55.10
2022-11-06T17:37:27.402Z,55.10
2022-11-06T17:40:00.791Z,55.30
2022-11-06T17:42:34.814Z,55.20
2022-11-06T17:45:11.178Z,55.20
2022-11-06T17:47:44.824Z,55.20
2022-11-06T17:50:19.529Z,54.70
2022-11-06T17:52:53.369Z,54.10
2022-11-06T17:55:26.856Z,55.00
2022-11-06T17:58:00.255Z,55.00
2022-11-06T18:00:35.635Z,54.70
2022-11-06T18:03:09.475Z,55.00
2022-11-06T18:05:43.824Z,55.00
2022-11-06T18:08:17.691Z,54.80
2022-11-06T18:10:56.479Z,54.80
2022-11-06T18:13:31.481Z,55.00
2022-11-06T18:16:16.111Z,55.00
2022-11-06T18:18:49.957Z,55.10
2022-11-06T18:21:24.322Z,55.00
2022-11-06T18:23:57.808Z,55.20
2022-11-06T18:26:33.140Z,55.50
2022-11-06T18:29:08.772Z,55.00
2022-11-06T18:31:44.341Z,54.80
2022-11-06T18:34:21.461Z,54.30
2022-11-06T18:36:54.982Z,54.70
2022-11-06T18:39:36.546Z,54.60
2022-11-06T18:42:09.899Z,54.80
2022-11-06T18:44:43.269Z,54.80
2022-11-06T18:47:18.250Z,54.80
2022-11-06T18:49:51.705Z,54.50
2022-11-06T18:52:51.485Z,54.70
2022-11-06T18:55:18.657Z,54.70
2022-11-06T18:57:54.879Z,54.80
2022-11-06T19:00:31.354Z,54.90
2022-11-06T19:03:06.789Z,54.90
2022-11-06T19:05:46.940Z,54.90
2022-11-06T19:08:20.690Z,55.00
2022-11-06T19:10:58.495Z,55.00
2022-11-06T19:13:32.205Z,55.10
2022-11-06T19:16:07.716Z,55.10
2022-11-06T19:18:43.961Z,55.20
2022-11-06T19:21:18.029Z,55.20
2022-11-06T19:23:52.313Z,55.30
2022-11-06T19:26:31.140Z,55.10
2022-11-06T19:29:09.211Z,55.10
2022-11-06T19:31:44.205Z,54.30
2022-11-06T19:34:20.350Z,55.70
2022-11-06T19:36:54.387Z,55.10
2022-11-06T19:39:28.145Z,55.00
2022-11-06T19:42:01.592Z,55.10
2022-11-06T19:44:34.875Z,55.00
2022-11-06T19:47:14.867Z,55.10
2022-11-06T19:49:49.933Z,55.30
2022-11-06T19:52:43.238Z,55.10
2022-11-06T19:55:26.371Z,55.20
2022-11-06T19:58:00.990Z,55.40
2022-11-06T20:00:35.879Z,55.30
